Time;durP1;ratioP1;P1;durP2;ratioP2;P2;SDS_P1;SDS_P2;PMS_P1;PMS_P2;Temp;Humidity;BMP_temperature;BMP_pressure;BME280_temperature;BME280_humidity;BME280_pressure;Samples;Min_cycle;Max_cycle;Signal;HPM_P1;HPM_P2
2022/12/23 00:00:42;;;;;;;0.10;0.10;;;12.90;99.90;;;;;;5052524;28;20041;-83
2022/12/23 00:03:08;;;;;;;1.00;1.00;;;12.90;99.90;;;;;;5056635;28;20036;-83
2022/12/23 00:05:38;;;;;;;0.13;0.13;;;12.90;99.90;;;;;;5055321;28;20868;-85
2022/12/23 00:08:04;;;;;;;0.10;0.10;;;12.90;99.90;;;;;;5057746;28;20088;-84
2022/12/23 00:10:30;;;;;;;0.35;0.30;;;12.90;99.90;;;;;;5065044;28;20424;-85
2022/12/23 00:15:40;;;;;;;0.45;0.45;;;12.90;99.90;;;;;;5064587;28;20754;-84
2022/12/23 00:18:06;;;;;;;0.30;0.30;;;12.90;99.90;;;;;;5062779;28;20036;-85
2022/12/23 00:20:33;;;;;;;2.23;0.93;;;12.90;99.90;;;;;;5063815;28;20112;-85
2022/12/23 00:23:04;;;;;;;0.22;0.22;;;12.90;99.90;;;;;;5062316;28;20108;-84
2022/12/23 00:25:40;;;;;;;0.45;0.40;;;12.90;99.90;;;;;;5061053;28;20033;-84
2022/12/23 00:28:10;;;;;;;0.08;0.08;;;12.90;99.90;;;;;;5073042;28;20027;-84
2022/12/23 00:31:01;;;;;;;0.10;0.10;;;12.90;99.90;;;;;;5060463;28;20104;-83
2022/12/23 00:33:29;;;;;;;0.00;0.00;;;12.90;99.90;;;;;;5059659;28;20042;-88
2022/12/23 00:35:55;;;;;;;0.15;0.15;;;12.90;99.90;;;;;;5064434;28;20043;-86
2022/12/23 00:44:07;;;;;;;0.15;0.15;;;12.90;99.90;;;;;;5055626;28;20040;-87
2022/12/23 00:46:33;;;;;;;1.30;0.83;;;12.90;99.90;;;;;;5052431;28;20036;-87
2022/12/23 00:51:43;;;;;;;0.03;0.03;;;12.90;99.90;;;;;;5062213;28;20047;-86
2022/12/23 00:54:09;;;;;;;0.00;0.00;;;13.00;99.90;;;;;;5061593;28;20115;-86
2022/12/23 00:56:35;;;;;;;0.20;0.20;;;12.90;99.90;;;;;;5063628;28;20039;-86
2022/12/23 00:59:00;;;;;;;0.00;0.00;;;12.90;99.90;;;;;;5057356;28;20025;-87
2022/12/23 01:06:56;;;;;;;0.08;0.08;;;12.90;99.90;;;;;;5057573;28;20079;-88
2022/12/23 01:09:22;;;;;;;1.23;0.40;;;12.90;99.90;;;;;;5058338;28;20036;-89
2022/12/23 01:11:48;;;;;;;0.10;0.10;;;12.90;99.90;;;;;;5057032;28;20037;-88
2022/12/23 01:14:14;;;;;;;0.20;0.20;;;12.90;99.90;;;;;;5059591;28;20036;-86
2022/12/23 01:16:40;;;;;;;0.20;0.20;;;12.80;99.90;;;;;;5064985;28;20032;-86
2022/12/23 01:19:06;;;;;;;0.53;0.53;;;12.90;99.90;;;;;;5052242;28;20114;-85
2022/12/23 01:21:33;;;;;;;0.20;0.20;;;12.80;99.90;;;;;;5059413;28;20037;-86
2022/12/23 01:23:59;;;;;;;0.00;0.00;;;12.80;99.90;;;;;;5066238;28;20027;-86
2022/12/23 01:26:25;;;;;;;0.77;0.60;;;12.80;99.90;;;;;;5055575;28;20527;-86
2022/12/23 01:28:57;;;;;;;2.33;0.73;;;12.80;99.90;;;;;;5065769;28;21134;-87
2022/12/23 01:31:25;;;;;;;0.20;0.20;;;12.80;99.90;;;;;;5059392;28;20148;-88
2022/12/23 01:33:51;;;;;;;0.05;0.05;;;12.80;99.90;;;;;;5061353;28;20040;-86
2022/12/23 01:36:17;;;;;;;0.10;0.10;;;12.70;99.90;;;;;;5059264;28;20040;-86
2022/12/23 01:38:44;;;;;;;0.98;0.68;;;12.70;99.90;;;;;;5060919;28;20048;-87
2022/12/23 01:44:44;;;;;;;0.75;0.75;;;12.80;99.90;;;;;;5057673;28;20043;-87
2022/12/23 01:47:13;;;;;;;0.22;0.15;;;12.80;99.90;;;;;;5055623;28;20028;-87
2022/12/23 01:49:40;;;;;;;0.50;0.50;;;12.80;99.90;;;;;;5052132;28;20263;-87
2022/12/23 01:52:06;;;;;;;1.75;1.65;;;12.70;99.90;;;;;;5057601;28;20106;-85
2022/12/23 01:54:33;;;;;;;0.82;0.63;;;12.70;99.90;;;;;;5061984;28;20036;-86
2022/12/23 01:56:58;;;;;;;1.83;0.93;;;12.70;99.90;;;;;;5055434;28;20055;-85
2022/12/23 02:04:54;;;;;;;3.42;0.77;;;12.70;99.90;;;;;;5056412;28;20040;-88
2022/12/23 02:10:06;;;;;;;0.22;0.22;;;12.70;99.90;;;;;;5053442;28;20048;-88
2022/12/23 02:12:34;;;;;;;;;;;12.60;99.90;;;;;;5050565;28;20037;-87
2022/12/23 02:17:53;;;;;;;0.22;0.22;;;12.70;99.90;;;;;;5052778;28;20939;-88
2022/12/23 02:20:39;;;;;;;0.67;0.53;;;12.70;99.90;;;;;;5064293;28;20131;-87
2022/12/23 02:23:42;;;;;;;0.08;0.08;;;12.70;99.90;;;;;;5056453;28;20112;-88
2022/12/23 02:26:59;;;;;;;4.93;1.77;;;12.70;99.90;;;;;;5048609;28;20043;-87
2022/12/23 02:30:02;;;;;;;5.85;0.82;;;12.70;99.90;;;;;;5002214;28;20037;-88
2022/12/23 02:32:44;;;;;;;0.75;0.43;;;12.70;99.90;;;;;;5050495;28;20047;-87
2022/12/23 02:35:34;;;;;;;0.20;0.20;;;12.70;99.90;;;;;;5056113;28;20060;-88
2022/12/23 02:38:18;;;;;;;0.35;0.35;;;12.70;99.90;;;;;;5055949;28;20040;-87
2022/12/23 02:41:06;;;;;;;1.27;1.05;;;12.70;99.90;;;;;;5055150;28;20078;-87
2022/12/23 02:43:45;;;;;;;1.45;0.65;;;12.70;99.90;;;;;;5060564;28;20037;-88
2022/12/23 02:46:23;;;;;;;0.55;0.55;;;12.60;99.90;;;;;;5058043;28;20025;-87
2022/12/23 02:49:03;;;;;;;0.80;0.80;;;12.70;99.90;;;;;;5051557;28;20067;-89
2022/12/23 02:51:34;;;;;;;0.75;0.55;;;12.60;99.90;;;;;;5053682;28;20037;-89
2022/12/23 02:54:05;;;;;;;5.88;0.50;;;12.60;99.90;;;;;;5054162;28;20047;-87
2022/12/23 02:56:34;;;;;;;0.10;0.10;;;12.70;99.90;;;;;;5049893;28;20071;-87
2022/12/23 02:59:05;;;;;;;0.20;0.20;;;12.70;99.90;;;;;;5047616;28;20568;-87
2022/12/23 03:01:33;;;;;;;1.75;0.98;;;12.60;99.90;;;;;;5051334;28;20032;-86
2022/12/23 03:03:59;;;;;;;0.35;0.35;;;12.70;99.90;;;;;;5054272;28;20048;-85
2022/12/23 03:06:34;;;;;;;0.52;0.52;;;12.60;99.90;;;;;;5052884;28;20080;-84
2022/12/23 03:09:00;;;;;;;0.57;0.57;;;12.60;99.90;;;;;;5055197;28;20174;-85
2022/12/23 03:11:40;;;;;;;0.55;0.55;;;12.60;99.90;;;;;;5046972;28;20052;-85
2022/12/23 03:14:47;;;;;;;0.43;0.43;;;12.60;99.90;;;;;;5059523;28;20044;-84
2022/12/23 03:17:33;;;;;;;0.63;0.45;;;12.60;99.90;;;;;;5062304;28;20028;-87
2022/12/23 03:20:03;;;;;;;1.75;1.15;;;12.60;99.90;;;;;;5055906;28;20043;-87
2022/12/23 03:22:39;;;;;;;7.68;2.47;;;12.60;99.90;;;;;;5057092;28;20032;-86
2022/12/23 03:25:19;;;;;;;0.90;0.55;;;12.50;99.90;;;;;;5057199;28;20036;-87
2022/12/23 03:28:02;;;;;;;1.48;0.82;;;12.60;99.90;;;;;;5057022;28;20021;-88
2022/12/23 03:30:30;;;;;;;0.30;0.30;;;12.50;99.90;;;;;;5057057;28;22017;-88
2022/12/23 03:33:01;;;;;;;0.15;0.10;;;12.60;99.90;;;;;;5055036;28;20642;-87
2022/12/23 03:35:35;;;;;;;0.57;0.57;;;12.50;99.90;;;;;;5053740;28;20029;-88
2022/12/23 03:38:02;;;;;;;0.85;0.73;;;12.50;99.90;;;;;;5065632;28;20038;-86
2022/12/23 03:40:42;;;;;;;13.35;0.70;;;12.50;99.90;;;;;;5063672;28;20036;-87
2022/12/23 03:43:16;;;;;;;2.83;1.75;;;12.50;99.90;;;;;;5053824;28;20086;-86
2022/12/23 03:45:47;;;;;;;11.60;1.45;;;12.50;99.90;;;;;;5057652;28;20083;-86
2022/12/23 03:48:33;;;;;;;0.20;0.17;;;12.50;99.90;;;;;;5057126;28;20128;-86
2022/12/23 03:51:09;;;;;;;0.68;0.40;;;12.50;99.90;;;;;;5060447;28;20017;-86
2022/12/23 03:53:47;;;;;;;0.25;0.25;;;12.50;99.90;;;;;;5056463;28;20064;-85
2022/12/23 03:56:19;;;;;;;0.73;0.70;;;12.50;99.90;;;;;;5056437;28;20044;-85
2022/12/23 03:58:57;;;;;;;7.28;1.20;;;12.50;99.90;;;;;;5052743;28;20035;-86
2022/12/23 04:01:44;;;;;;;1.02;0.50;;;12.50;99.90;;;;;;5060005;28;20036;-88
2022/12/23 04:04:23;;;;;;;0.82;0.82;;;12.50;99.90;;;;;;5046813;28;20021;-89
2022/12/23 04:07:12;;;;;;;9.52;1.02;;;12.50;99.90;;;;;;5057648;28;20059;-87
2022/12/23 04:09:39;;;;;;;0.60;0.60;;;12.50;99.90;;;;;;5054502;28;20029;-88
2022/12/23 04:12:06;;;;;;;0.73;0.63;;;12.40;99.90;;;;;;5052123;28;20631;-88
2022/12/23 04:14:34;;;;;;;0.32;0.32;;;12.50;99.90;;;;;;5050455;28;20052;-88
2022/12/23 04:17:00;;;;;;;1.08;1.02;;;12.50;99.90;;;;;;5047432;28;20033;-86
2022/12/23 04:19:26;;;;;;;0.10;0.10;;;12.50;99.90;;;;;;5061455;28;20033;-85
2022/12/23 04:21:54;;;;;;;4.18;1.10;;;12.50;99.90;;;;;;5051957;28;20064;-85
2022/12/23 04:24:20;;;;;;;0.93;0.93;;;12.50;99.90;;;;;;5058157;28;20199;-85
2022/12/23 04:26:46;;;;;;;0.10;0.10;;;12.40;99.90;;;;;;5050899;28;20274;-86
2022/12/23 04:29:11;;;;;;;0.23;0.23;;;12.40;99.90;;;;;;5062137;28;20025;-86
2022/12/23 04:31:37;;;;;;;0.30;0.30;;;12.40;99.90;;;;;;5054489;28;20732;-85
2022/12/23 04:34:03;;;;;;;2.53;1.23;;;12.40;99.90;;;;;;5056095;28;20037;-84
2022/12/23 04:36:28;;;;;;;0.32;0.32;;;12.40;99.90;;;;;;5046825;28;20029;-84
2022/12/23 04:38:54;;;;;;;0.30;0.30;;;12.40;99.90;;;;;;5053862;28;20044;-83
2022/12/23 04:41:20;;;;;;;0.13;0.13;;;12.40;99.90;;;;;;5060249;28;20158;-82
2022/12/23 04:43:46;;;;;;;1.50;0.70;;;12.40;99.90;;;;;;5053747;28;20086;-83
2022/12/23 04:46:11;;;;;;;0.93;0.93;;;12.40;99.90;;;;;;5063370;28;20033;-83
2022/12/23 04:48:37;;;;;;;0.30;0.30;;;12.40;99.90;;;;;;5057934;28;20032;-83
2022/12/23 04:51:03;;;;;;;2.38;2.17;;;12.40;99.90;;;;;;5056348;28;20037;-83
2022/12/23 04:53:29;;;;;;;0.85;0.63;;;12.40;99.90;;;;;;5062886;28;20073;-83
2022/12/23 04:55:54;;;;;;;0.52;0.38;;;12.40;99.90;;;;;;5058724;28;20032;-83
2022/12/23 04:58:21;;;;;;;5.32;1.95;;;12.40;99.90;;;;;;5061312;28;20038;-83
2022/12/23 05:00:47;;;;;;;1.00;1.00;;;12.40;99.90;;;;;;5064305;28;20044;-83
2022/12/23 05:03:13;;;;;;;0.60;0.60;;;12.40;99.90;;;;;;5055420;28;20300;-84
2022/12/23 05:05:43;;;;;;;0.70;0.70;;;12.30;99.90;;;;;;5065203;28;20103;-82
2022/12/23 05:08:09;;;;;;;0.10;0.10;;;12.30;99.90;;;;;;5069961;28;20048;-83
2022/12/23 05:10:34;;;;;;;0.47;0.38;;;12.40;99.90;;;;;;5065802;28;20037;-83
2022/12/23 05:13:00;;;;;;;0.20;0.20;;;12.40;99.90;;;;;;5068438;28;20453;-83
2022/12/23 05:15:26;;;;;;;0.70;0.70;;;12.40;99.90;;;;;;5058361;28;20039;-82
2022/12/23 05:17:51;;;;;;;0.87;0.87;;;12.30;99.90;;;;;;5068026;28;20050;-83
2022/12/23 05:20:17;;;;;;;1.40;1.40;;;12.30;99.90;;;;;;5057293;28;20091;-83
2022/12/23 05:22:43;;;;;;;0.10;0.10;;;12.30;99.90;;;;;;5069046;28;20048;-82
2022/12/23 05:25:08;;;;;;;0.10;0.10;;;12.30;99.90;;;;;;5063884;28;20024;-82
2022/12/23 05:27:35;;;;;;;0.30;0.30;;;12.30;99.90;;;;;;5055534;28;20642;-83
2022/12/23 05:30:01;;;;;;;0.75;0.60;;;12.30;99.90;;;;;;5066627;28;20036;-83
2022/12/23 05:32:27;;;;;;;0.52;0.50;;;12.30;99.90;;;;;;5052118;28;20060;-83
2022/12/23 05:34:53;;;;;;;0.60;0.60;;;12.30;99.90;;;;;;5057810;28;20069;-83
2022/12/23 05:37:18;;;;;;;0.30;0.30;;;12.30;99.90;;;;;;5058484;28;20081;-83
2022/12/23 05:39:44;;;;;;;1.40;1.15;;;12.30;99.90;;;;;;5057088;28;20476;-82
2022/12/23 05:42:10;;;;;;;2.67;0.75;;;12.30;99.90;;;;;;5058941;28;20118;-83
2022/12/23 05:44:35;;;;;;;0.73;0.73;;;12.20;99.90;;;;;;5066855;28;20029;-82
2022/12/23 05:47:01;;;;;;;3.70;2.63;;;12.20;99.90;;;;;;5064603;28;20440;-82
2022/12/23 05:49:27;;;;;;;0.20;0.20;;;12.20;99.90;;;;;;5055907;28;20442;-82
2022/12/23 05:51:52;;;;;;;11.47;1.57;;;12.20;99.90;;;;;;5052362;28;20114;-83
2022/12/23 05:54:18;;;;;;;0.38;0.38;;;12.20;99.90;;;;;;5052811;28;20071;-84
2022/12/23 05:56:44;;;;;;;0.25;0.25;;;12.20;99.90;;;;;;5054612;28;20453;-84
2022/12/23 05:59:09;;;;;;;0.32;0.32;;;12.30;99.90;;;;;;5054254;28;20040;-82
2022/12/23 06:01:35;;;;;;;0.30;0.30;;;12.20;99.90;;;;;;5054909;28;20804;-83
2022/12/23 06:04:01;;;;;;;1.45;1.02;;;12.30;99.90;;;;;;5062806;28;20060;-83
2022/12/23 06:06:27;;;;;;;0.17;0.17;;;12.20;99.90;;;;;;5058620;28;20437;-83
2022/12/23 06:08:53;;;;;;;0.10;0.10;;;12.20;99.90;;;;;;5055033;28;20032;-90
2022/12/23 06:11:18;;;;;;;2.75;0.93;;;12.20;99.90;;;;;;5050667;28;20029;-89
2022/12/23 06:13:44;;;;;;;8.07;1.00;;;12.20;99.90;;;;;;5068069;28;20024;-82
2022/12/23 06:16:10;;;;;;;2.35;1.35;;;12.20;99.90;;;;;;5054621;28;20064;-80
2022/12/23 06:18:35;;;;;;;0.57;0.57;;;12.20;99.90;;;;;;5058321;28;20021;-80
2022/12/23 06:21:01;;;;;;;2.37;0.60;;;12.20;99.90;;;;;;5060621;28;20982;-81
2022/12/23 06:23:27;;;;;;;0.10;0.10;;;12.20;99.90;;;;;;5056135;28;20028;-80
2022/12/23 06:26:02;;;;;;;0.40;0.40;;;12.20;99.90;;;;;;5053190;28;20028;-81
2022/12/23 06:28:28;;;;;;;0.10;0.10;;;12.20;99.90;;;;;;5059850;28;20052;-80
2022/12/23 06:30:57;;;;;;;0.68;0.68;;;12.20;99.90;;;;;;5059709;28;20039;-81
2022/12/23 06:33:23;;;;;;;1.10;1.10;;;12.20;99.90;;;;;;5057831;28;20029;-80
2022/12/23 06:35:49;;;;;;;3.63;0.87;;;12.20;99.90;;;;;;5064583;28;20036;-81
2022/12/23 06:38:15;;;;;;;0.38;0.38;;;12.20;99.90;;;;;;5068165;28;20274;-81
2022/12/23 06:40:40;;;;;;;0.60;0.60;;;12.20;99.90;;;;;;5064153;28;20028;-81
2022/12/23 06:43:06;;;;;;;0.60;0.60;;;12.20;99.90;;;;;;5068259;28;20033;-80
2022/12/23 06:45:32;;;;;;;5.22;1.45;;;12.20;99.90;;;;;;5061323;28;20036;-81
2022/12/23 06:47:57;;;;;;;10.07;1.95;;;12.20;99.90;;;;;;5067734;28;20594;-81
2022/12/23 06:50:23;;;;;;;0.52;0.50;;;12.20;99.90;;;;;;5064360;28;20029;-83
2022/12/23 06:52:49;;;;;;;1.03;0.93;;;12.20;99.90;;;;;;5067608;28;20032;-82
2022/12/23 06:55:15;;;;;;;0.53;0.53;;;12.20;99.90;;;;;;5062981;28;20070;-83
2022/12/23 06:57:40;;;;;;;0.75;0.65;;;12.20;99.90;;;;;;5064809;28;20035;-85
2022/12/23 07:00:07;;;;;;;0.50;0.50;;;12.20;99.90;;;;;;5064614;28;20098;-85
2022/12/23 07:02:33;;;;;;;;;;;12.20;99.90;;;;;;5062603;28;20058;-92
2022/12/23 07:04:59;;;;;;;1.85;1.45;;;12.20;99.90;;;;;;5070108;28;19995;-85
2022/12/23 07:07:25;;;;;;;0.75;0.47;;;12.20;99.90;;;;;;5058940;28;20071;-87
2022/12/23 07:09:51;;;;;;;0.30;0.30;;;12.20;99.90;;;;;;5069681;28;20033;-85
2022/12/23 07:12:16;;;;;;;0.70;0.70;;;12.20;99.90;;;;;;5063498;28;20047;-85
2022/12/23 07:14:42;;;;;;;3.35;2.03;;;12.20;99.90;;;;;;5058599;28;20036;-89
2022/12/23 07:17:08;;;;;;;0.20;0.20;;;12.20;99.90;;;;;;5067411;28;20032;-90
2022/12/23 07:19:33;;;;;;;0.30;0.30;;;12.20;99.90;;;;;;5058714;28;20111;-84
2022/12/23 07:21:59;;;;;;;2.60;0.63;;;12.20;99.90;;;;;;5057110;28;20052;-86
2022/12/23 07:24:25;;;;;;;0.20;0.20;;;12.20;99.90;;;;;;5063201;28;20028;-85
2022/12/23 07:26:51;;;;;;;0.30;0.30;;;12.20;99.90;;;;;;5067538;28;20024;-85
2022/12/23 07:29:19;;;;;;;1.35;0.32;;;12.20;99.90;;;;;;5062312;28;20740;-81
2022/12/23 07:31:45;;;;;;;0.55;0.30;;;12.20;99.90;;;;;;5066610;28;20799;-87
2022/12/23 07:34:10;;;;;;;4.60;3.17;;;12.20;99.90;;;;;;5065989;28;20040;-86
2022/12/23 07:36:36;;;;;;;2.90;1.67;;;12.20;99.90;;;;;;5067351;28;20036;-86
2022/12/23 07:39:02;;;;;;;1.02;0.73;;;12.20;99.90;;;;;;5053445;28;20040;-89
2022/12/23 07:41:28;;;;;;;2.03;1.43;;;12.20;99.90;;;;;;5068857;28;20025;-88
2022/12/23 07:43:54;;;;;;;6.15;2.25;;;12.20;99.90;;;;;;5054429;28;20112;-86
2022/12/23 07:46:19;;;;;;;1.40;1.30;;;12.20;99.90;;;;;;5049264;28;20083;-84
2022/12/23 07:48:45;;;;;;;18.75;2.33;;;12.20;99.90;;;;;;5052275;28;20029;-85
2022/12/23 07:51:11;;;;;;;0.70;0.68;;;12.20;99.90;;;;;;5052198;28;20029;-81
2022/12/23 07:53:36;;;;;;;0.30;0.30;;;12.20;99.90;;;;;;5051228;28;20028;-84
2022/12/23 07:56:02;;;;;;;0.60;0.60;;;12.20;99.90;;;;;;5050323;28;20025;-83
2022/12/23 07:58:28;;;;;;;0.37;0.37;;;12.30;99.90;;;;;;5051095;28;20431;-83
2022/12/23 08:01:02;;;;;;;0.20;0.20;;;12.20;99.90;;;;;;5063807;28;20024;-83
2022/12/23 08:03:28;;;;;;;22.67;4.40;;;12.30;99.90;;;;;;5065182;28;20407;-83
2022/12/23 08:06:03;;;;;;;1.40;1.30;;;12.30;99.90;;;;;;5056862;28;20021;-82
2022/12/23 08:08:29;;;;;;;2.33;2.13;;;12.40;99.90;;;;;;5061265;28;20189;-83
2022/12/23 08:10:59;;;;;;;1.67;1.57;;;12.40;99.90;;;;;;5062325;28;20027;-82
2022/12/23 08:13:25;;;;;;;0.22;0.22;;;12.40;99.90;;;;;;5065360;28;20255;-82
2022/12/23 08:15:56;;;;;;;0.30;0.25;;;12.50;99.90;;;;;;5061877;28;20871;-82
2022/12/23 08:18:23;;;;;;;10.05;4.45;;;12.60;99.90;;;;;;5056550;28;20028;-83
2022/12/23 08:21:00;;;;;;;3.08;2.38;;;12.60;99.90;;;;;;5057142;28;20040;-80
2022/12/23 08:23:28;;;;;;;0.17;0.17;;;12.60;99.90;;;;;;5062043;28;20119;-80
2022/12/23 08:26:01;;;;;;;5.90;3.15;;;12.60;99.90;;;;;;5064049;28;20068;-81
2022/12/23 08:28:27;;;;;;;4.78;3.15;;;12.50;99.90;;;;;;5064386;28;20023;-82
2022/12/23 08:30:53;;;;;;;47.90;10.63;;;12.50;99.90;;;;;;5068297;28;20035;-84
2022/12/23 08:33:18;;;;;;;21.17;7.73;;;12.50;99.90;;;;;;5069267;28;20033;-85
2022/12/23 08:35:44;;;;;;;6.03;3.30;;;12.50;99.90;;;;;;5068795;28;20119;-81
2022/12/23 08:38:10;;;;;;;2.40;1.87;;;12.50;99.90;;;;;;5067420;28;20906;-81
2022/12/23 08:40:39;;;;;;;0.33;0.27;;;12.60;99.90;;;;;;5068680;28;20032;-81
2022/12/23 08:43:04;;;;;;;0.68;0.68;;;12.70;99.90;;;;;;5066226;28;20024;-81
2022/12/23 08:45:30;;;;;;;0.30;0.30;;;12.90;99.90;;;;;;5066282;28;20039;-81
2022/12/23 08:47:56;;;;;;;0.20;0.20;;;13.00;99.90;;;;;;5070003;28;20082;-82
2022/12/23 08:50:21;;;;;;;0.17;0.17;;;13.10;99.90;;;;;;5066231;28;20088;-80
2022/12/23 08:52:47;;;;;;;0.40;0.40;;;13.30;99.90;;;;;;5061550;28;20032;-81
2022/12/23 08:55:13;;;;;;;0.57;0.57;;;13.40;99.90;;;;;;5064489;28;20038;-81
2022/12/23 08:57:38;;;;;;;0.27;0.10;;;13.50;99.90;;;;;;5064871;28;20107;-81
2022/12/23 09:00:05;;;;;;;11.87;0.57;;;13.60;99.90;;;;;;5069366;28;20032;-81
2022/12/23 09:02:30;;;;;;;0.28;0.28;;;13.40;99.90;;;;;;5060172;28;20040;-81
2022/12/23 09:04:56;;;;;;;1.23;0.83;;;13.30;99.90;;;;;;5066248;28;20591;-81
2022/12/23 09:07:22;;;;;;;0.47;0.28;;;13.20;99.90;;;;;;5061278;28;20049;-81
2022/12/23 09:09:48;;;;;;;0.30;0.30;;;13.20;99.90;;;;;;5068413;28;20740;-82
2022/12/23 09:12:13;;;;;;;0.43;0.43;;;13.20;99.90;;;;;;5063196;28;20037;-81
2022/12/23 09:14:42;;;;;;;;;;;13.20;99.90;;;;;;5059731;28;20166;-81
2022/12/23 09:17:08;;;;;;;0.25;0.17;;;13.20;99.90;;;;;;5062115;28;19908;-80
2022/12/23 09:19:34;;;;;;;0.20;0.20;;;13.20;99.90;;;;;;5062648;28;20051;-82
2022/12/23 09:21:59;;;;;;;0.70;0.70;;;13.20;99.90;;;;;;5063470;28;20484;-82
2022/12/23 09:24:25;;;;;;;0.13;0.13;;;13.10;99.90;;;;;;5050089;28;20076;-85
2022/12/23 09:26:50;;;;;;;6.65;2.67;;;13.10;99.90;;;;;;5056740;28;20082;-82
2022/12/23 09:29:16;;;;;;;4.57;2.30;;;13.00;99.90;;;;;;5063003;28;20646;-82
2022/12/23 09:31:42;;;;;;;1.73;1.53;;;13.00;99.90;;;;;;5061733;28;21016;-81
2022/12/23 09:34:10;;;;;;;2.77;1.20;;;13.00;99.90;;;;;;5056821;28;20086;-82
2022/12/23 09:36:35;;;;;;;0.10;0.10;;;13.00;99.90;;;;;;5059666;28;20184;-82
2022/12/23 09:39:01;;;;;;;0.87;0.87;;;13.00;99.90;;;;;;5062072;28;20024;-83
2022/12/23 09:41:36;;;;;;;0.53;0.53;;;13.00;99.90;;;;;;5057188;28;20115;-83
2022/12/23 09:44:13;;;;;;;0.90;0.90;;;13.00;99.90;;;;;;5057062;28;20025;-84
2022/12/23 09:46:49;;;;;;;0.70;0.65;;;13.00;99.90;;;;;;5053386;28;20028;-87
2022/12/23 09:49:17;;;;;;;0.17;0.17;;;13.00;99.90;;;;;;5065524;28;20679;-86
2022/12/23 09:51:44;;;;;;;1.63;1.40;;;13.00;99.90;;;;;;5053939;28;20082;-85
2022/12/23 09:54:28;;;;;;;0.77;0.77;;;13.00;99.90;;;;;;5064373;28;20024;-86
2022/12/23 09:57:06;;;;;;;0.90;0.57;;;13.00;99.90;;;;;;5055371;28;20036;-87
2022/12/23 09:59:49;;;;;;;5.03;2.38;;;13.00;99.90;;;;;;5053660;28;20100;-87
2022/12/23 10:02:41;;;;;;;4.00;2.60;;;13.00;99.90;;;;;;5053433;28;20040;-87
2022/12/23 10:05:26;;;;;;;2.92;1.58;;;13.00;99.90;;;;;;5050173;28;20029;-84
2022/12/23 10:08:00;;;;;;;1.10;0.82;;;13.10;99.90;;;;;;5065817;28;20107;-85
2022/12/23 10:10:29;;;;;;;7.85;2.05;;;13.00;99.90;;;;;;5065894;28;20106;-87
2022/12/23 10:12:59;;;;;;;0.43;0.35;;;13.10;99.90;;;;;;5064833;28;20596;-84
2022/12/23 10:15:38;;;;;;;0.60;0.60;;;13.10;99.90;;;;;;5061359;28;20043;-85
2022/12/23 10:18:48;;;;;;;0.57;0.40;;;13.10;99.90;;;;;;5055883;28;20037;-84
2022/12/23 10:21:32;;;;;;;0.20;0.20;;;13.20;99.90;;;;;;5037542;28;20833;-83
2022/12/23 10:24:04;;;;;;;0.45;0.45;;;13.20;99.90;;;;;;5056782;28;20512;-83
2022/12/23 10:26:44;;;;;;;1.27;0.40;;;13.10;99.90;;;;;;5047440;28;20408;-83
2022/12/23 10:29:22;;;;;;;0.52;0.50;;;13.20;99.90;;;;;;5047874;28;20025;-82
2022/12/23 10:32:17;;;;;;;0.32;0.32;;;13.40;99.90;;;;;;5045687;28;20029;-83
2022/12/23 10:34:58;;;;;;;1.27;0.85;;;13.40;99.90;;;;;;5049886;28;20033;-82
2022/12/23 10:37:47;;;;;;;0.15;0.15;;;13.60;99.90;;;;;;5049810;28;20396;-82
2022/12/23 10:40:33;;;;;;;2.53;0.38;;;14.10;99.90;;;;;;5047591;28;20064;-83
2022/12/23 10:43:20;;;;;;;0.50;0.50;;;14.30;99.90;;;;;;5053422;28;20024;-83
2022/12/23 10:45:52;;;;;;;3.50;0.38;;;14.50;99.90;;;;;;5058386;28;20145;-83
2022/12/23 10:48:42;;;;;;;9.13;1.95;;;15.10;99.90;;;;;;5046921;28;20021;-82
2022/12/23 10:51:25;;;;;;;2.65;1.02;;;15.40;99.90;;;;;;5053517;28;20028;-83
2022/12/23 10:53:58;;;;;;;3.95;1.90;;;15.20;99.90;;;;;;5058225;28;20543;-82
2022/12/23 10:56:23;;;;;;;0.25;0.25;;;14.80;99.90;;;;;;5058513;28;20037;-83
2022/12/23 10:58:54;;;;;;;0.93;0.73;;;14.90;99.90;;;;;;5057792;28;20112;-82
2022/12/23 11:01:21;;;;;;;0.52;0.50;;;15.20;99.90;;;;;;5057620;28;20780;-82
2022/12/23 11:04:02;;;;;;;0.47;0.47;;;15.40;99.90;;;;;;5057471;28;20097;-82
2022/12/23 11:06:29;;;;;;;1.00;0.55;;;15.40;99.90;;;;;;5054325;28;20617;-82
2022/12/23 11:08:56;;;;;;;7.15;2.03;;;15.30;99.90;;;;;;5062246;28;20056;-83
2022/12/23 11:11:22;;;;;;;4.75;0.30;;;15.40;99.90;;;;;;5058389;28;20024;-82
2022/12/23 11:13:49;;;;;;;1.87;0.97;;;15.60;99.90;;;;;;5055670;28;20033;-83
2022/12/23 11:16:25;;;;;;;7.63;0.70;;;15.70;99.90;;;;;;5047442;28;20029;-81
2022/12/23 11:19:12;;;;;;;6.47;1.15;;;15.80;99.90;;;;;;5047076;28;20063;-82
2022/12/23 11:21:37;;;;;;;0.30;0.30;;;15.80;99.90;;;;;;5050951;28;20033;-82
2022/12/23 11:24:17;;;;;;;1.20;0.93;;;15.70;99.90;;;;;;5058918;28;20043;-82
2022/12/23 11:26:49;;;;;;;1.65;1.27;;;15.60;99.90;;;;;;5055901;28;20037;-82
2022/12/23 11:29:22;;;;;;;0.52;0.30;;;15.30;99.90;;;;;;5052285;28;20432;-82
2022/12/23 11:31:48;;;;;;;0.55;0.30;;;15.40;99.90;;;;;;5052344;28;20520;-81
2022/12/23 11:34:18;;;;;;;1.88;1.08;;;15.40;99.90;;;;;;5056079;28;20040;-80
2022/12/23 11:36:54;;;;;;;0.50;0.50;;;15.40;99.90;;;;;;5046017;28;20033;-81
2022/12/23 11:39:28;;;;;;;0.40;0.40;;;15.40;99.90;;;;;;5055218;28;20058;-81
2022/12/23 11:42:19;;;;;;;1.02;0.93;;;15.40;99.90;;;;;;5045928;28;20028;-81
2022/12/23 11:44:50;;;;;;;1.38;0.98;;;15.20;99.90;;;;;;5063505;28;20039;-81
2022/12/23 11:47:20;;;;;;;0.30;0.20;;;15.00;99.90;;;;;;5058688;28;20021;-81
2022/12/23 11:49:50;;;;;;;0.30;0.20;;;14.90;99.90;;;;;;5054012;28;20025;-81
2022/12/23 11:52:22;;;;;;;0.22;0.20;;;14.90;99.90;;;;;;5050196;28;20103;-81
2022/12/23 11:54:54;;;;;;;0.03;0.03;;;15.00;99.90;;;;;;5058400;28;20028;-81
2022/12/23 11:57:45;;;;;;;2.00;0.73;;;14.90;99.90;;;;;;5051842;28;20029;-81
2022/12/23 12:00:21;;;;;;;0.55;0.55;;;14.90;99.90;;;;;;5047575;28;20085;-81
2022/12/23 12:03:00;;;;;;;0.10;0.10;;;14.90;99.90;;;;;;5054210;28;20075;-81
2022/12/23 12:05:45;;;;;;;8.10;0.28;;;15.00;99.90;;;;;;5046850;28;20044;-80
2022/12/23 12:08:14;;;;;;;0.43;0.43;;;15.00;99.90;;;;;;5059895;28;20045;-80
2022/12/23 12:10:41;;;;;;;0.30;0.30;;;15.20;99.90;;;;;;5055411;28;20092;-81
2022/12/23 12:13:20;;;;;;;0.15;0.15;;;15.20;99.90;;;;;;5047595;28;20072;-81
2022/12/23 12:16:11;;;;;;;0.00;0.00;;;15.40;99.90;;;;;;5053028;28;20060;-81
2022/12/23 12:18:38;;;;;;;0.10;0.10;;;15.30;99.90;;;;;;5051504;28;20532;-82
2022/12/23 12:21:13;;;;;;;0.13;0.13;;;15.30;99.90;;;;;;5067218;28;20072;-81
2022/12/23 12:23:38;;;;;;;0.10;0.10;;;15.20;99.90;;;;;;5052068;28;20025;-84
2022/12/23 12:26:12;;;;;;;0.43;0.43;;;15.10;99.90;;;;;;5054930;28;20393;-86
2022/12/23 12:28:47;;;;;;;5.60;1.40;;;15.00;99.90;;;;;;5058298;28;20565;-81
2022/12/23 12:31:42;;;;;;;0.95;0.38;;;15.20;99.90;;;;;;5052100;28;20056;-84
2022/12/23 12:34:33;;;;;;;0.10;0.10;;;15.40;99.90;;;;;;5066446;28;20116;-84
2022/12/23 12:37:20;;;;;;;0.32;0.10;;;15.20;99.90;;;;;;5068900;28;20029;-84
2022/12/23 12:40:19;;;;;;;0.17;0.15;;;15.30;99.90;;;;;;5055752;28;20043;-86
2022/12/23 12:42:53;;;;;;;0.90;0.30;;;15.30;99.90;;;;;;5051801;28;20029;-85
2022/12/23 12:45:31;;;;;;;0.52;0.40;;;15.50;99.90;;;;;;5065401;28;20385;-82
2022/12/23 12:48:21;;;;;;;0.00;0.00;;;15.40;99.90;;;;;;5066037;28;20108;-83
2022/12/23 12:51:06;;;;;;;0.10;0.10;;;15.30;99.90;;;;;;5055523;28;20070;-82
2022/12/23 12:53:34;;;;;;;1.70;0.50;;;15.20;99.90;;;;;;5062425;28;20510;-84
2022/12/23 12:56:16;;;;;;;0.22;0.15;;;15.20;99.90;;;;;;5049114;28;20029;-85
2022/12/23 12:58:43;;;;;;;0.45;0.45;;;15.10;99.90;;;;;;5063074;28;20089;-87
2022/12/23 13:01:30;;;;;;;2.33;1.00;;;15.20;99.90;;;;;;5058662;28;20040;-85
2022/12/23 13:04:27;;;;;;;0.73;0.63;;;15.30;99.90;;;;;;5054938;28;20090;-86
2022/12/23 13:07:02;;;;;;;13.52;1.45;;;15.40;99.90;;;;;;5051461;28;20104;-85
2022/12/23 13:09:50;;;;;;;0.85;0.82;;;15.30;99.90;;;;;;5059863;28;20024;-86
2022/12/23 13:12:28;;;;;;;0.20;0.20;;;15.20;99.90;;;;;;5051259;28;20039;-85
2022/12/23 13:15:27;;;;;;;3.97;0.82;;;15.20;99.90;;;;;;5061732;28;20570;-86
2022/12/23 13:18:18;;;;;;;0.25;0.25;;;15.20;99.90;;;;;;5048784;28;20037;-82
2022/12/23 13:21:07;;;;;;;0.10;0.10;;;15.30;99.90;;;;;;5053300;28;20045;-84
2022/12/23 13:23:59;;;;;;;0.30;0.30;;;15.20;99.90;;;;;;5051703;28;20033;-84
2022/12/23 13:26:38;;;;;;;0.95;0.95;;;15.30;99.90;;;;;;5054194;28;20021;-83
2022/12/23 13:29:23;;;;;;;0.75;0.55;;;15.30;99.90;;;;;;5063512;28;20043;-83
2022/12/23 13:32:10;;;;;;;0.35;0.35;;;15.20;99.90;;;;;;5058414;28;20031;-83
2022/12/23 13:34:47;;;;;;;0.38;0.38;;;15.10;99.90;;;;;;5056089;28;20047;-83
2022/12/23 13:37:32;;;;;;;0.17;0.17;;;15.10;99.90;;;;;;5049457;28;20092;-83
2022/12/23 13:40:15;;;;;;;0.40;0.40;;;15.10;99.90;;;;;;5062992;28;20047;-84
2022/12/23 13:42:49;;;;;;;0.28;0.28;;;15.00;99.90;;;;;;5051620;28;20025;-83